createdAt,value
2023-03-06T00:03:55.325Z,68.80
2023-03-06T00:07:58.487Z,69.00
2023-03-06T00:12:01.175Z,69.00
2023-03-06T00:16:04.955Z,68.60
2023-03-06T00:20:08.448Z,69.10
2023-03-06T00:24:11.064Z,68.90
2023-03-06T00:28:15.753Z,69.60
2023-03-06T00:32:18.668Z,70.00
2023-03-06T00:36:21.511Z,70.30
2023-03-06T00:40:24.191Z,69.90
2023-03-06T00:44:26.793Z,70.10
2023-03-06T00:48:29.757Z,70.40
2023-03-06T00:52:32.679Z,71.00
2023-03-06T00:56:36.195Z,71.20
2023-03-06T01:00:39.035Z,71.10
2023-03-06T01:04:44.015Z,72.40
2023-03-06T01:08:47.161Z,73.20
2023-03-06T01:12:50.157Z,73.50
2023-03-06T01:16:54.759Z,73.70
2023-03-06T01:20:57.862Z,73.90
2023-03-06T01:25:00.875Z,74.10
2023-03-06T01:29:03.614Z,73.90
2023-03-06T01:33:06.343Z,74.10
2023-03-06T01:37:09.838Z,74.00
2023-03-06T01:41:16.117Z,74.00
2023-03-06T01:45:18.744Z,74.20
2023-03-06T01:49:24.116Z,73.90
2023-03-06T01:53:26.847Z,73.80
2023-03-06T01:57:38.398Z,73.80
2023-03-06T02:01:42.220Z,73.80
2023-03-06T02:05:45.422Z,74.00
2023-03-06T02:09:48.330Z,74.40
2023-03-06T02:13:52.811Z,74.70
2023-03-06T02:17:55.614Z,74.80
2023-03-06T02:21:59.637Z,74.60
2023-03-06T02:26:02.880Z,74.60
2023-03-06T02:30:09.248Z,74.20
2023-03-06T02:34:15.843Z,74.40
2023-03-06T02:38:20.139Z,73.80
2023-03-06T02:42:25.172Z,72.70
2023-03-06T02:46:29.797Z,72.60
2023-03-06T02:50:32.596Z,72.90
2023-03-06T02:54:36.864Z,72.90
2023-03-06T02:58:39.509Z,72.80
2023-03-06T03:02:42.293Z,72.70
2023-03-06T03:06:45.126Z,72.70
2023-03-06T03:10:48.277Z,72.90
2023-03-06T03:14:51.011Z,73.00
2023-03-06T03:18:53.715Z,73.00
2023-03-06T03:22:58.702Z,73.00
2023-03-06T03:27:02.581Z,72.90
2023-03-06T03:31:06.762Z,73.10
2023-03-06T03:35:11.809Z,73.10
2023-03-06T03:39:14.913Z,73.20
2023-03-06T03:43:18.687Z,73.40
2023-03-06T03:47:22.164Z,73.30
2023-03-06T03:51:25.036Z,73.20
2023-03-06T03:55:30.084Z,73.40
2023-03-06T03:59:33.204Z,73.70
2023-03-06T04:03:43.809Z,74.10
2023-03-06T04:07:47.865Z,73.90
2023-03-06T04:11:51.365Z,73.70
2023-03-06T04:15:55.118Z,73.60
2023-03-06T04:19:59.504Z,73.60
2023-03-06T04:24:03.517Z,73.50
2023-03-06T04:28:06.721Z,73.30
2023-03-06T04:32:10.500Z,73.30
2023-03-06T04:36:22.405Z,73.60
2023-03-06T04:40:29.649Z,73.60
2023-03-06T04:44:33.170Z,74.10
2023-03-06T04:48:36.474Z,74.50
2023-03-06T04:52:40.593Z,74.50
2023-03-06T04:56:43.254Z,74.20
2023-03-06T05:00:45.867Z,73.90
2023-03-06T05:04:48.576Z,73.90
2023-03-06T05:08:51.258Z,74.00
2023-03-06T05:12:53.896Z,74.20
2023-03-06T05:16:56.776Z,74.90
2023-03-06T05:21:00.012Z,75.30
2023-03-06T05:25:07.100Z,75.40
2023-03-06T05:29:10.121Z,75.20
2023-03-06T05:33:12.957Z,75.80
2023-03-06T05:37:17.345Z,76.20
2023-03-06T05:41:20.572Z,76.40
2023-03-06T05:45:23.435Z,76.30
2023-03-06T05:49:26.413Z,76.00
2023-03-06T05:53:29.512Z,75.80
2023-03-06T05:57:32.303Z,75.90
2023-03-06T06:21:54.237Z,75.40
2023-03-06T06:25:59.316Z,75.20
2023-03-06T06:30:02.241Z,75.40
2023-03-06T06:34:05.194Z,75.50
2023-03-06T06:38:07.929Z,75.50
2023-03-06T06:42:30.205Z,75.20
2023-03-06T06:47:19.279Z,75.00
2023-03-06T06:50:56.567Z,74.90
2023-03-06T06:54:59.362Z,74.70
2023-03-06T06:59:16.221Z,74.50
2023-03-06T07:03:19.814Z,74.30
2023-03-06T07:07:24.740Z,74.20
2023-03-06T07:11:28.174Z,74.10
2023-03-06T07:15:30.943Z,74.00
2023-03-06T07:19:33.807Z,73.90
2023-03-06T07:23:36.582Z,73.90
2023-03-06T07:27:39.204Z,74.30
2023-03-06T07:31:42.139Z,74.40
2023-03-06T07:35:45.056Z,74.50
2023-03-06T07:39:48.187Z,74.40
2023-03-06T07:43:50.909Z,75.50
2023-03-06T07:47:54.286Z,75.00
2023-03-06T07:51:56.970Z,74.70
2023-03-06T07:55:59.678Z,74.80
2023-03-06T08:00:02.686Z,75.20
2023-03-06T08:04:15.818Z,75.10
2023-03-06T08:08:18.399Z,74.90
2023-03-06T08:12:21.090Z,74.70
2023-03-06T08:16:25.468Z,74.40
2023-03-06T08:20:28.297Z,74.10
2023-03-06T08:24:31.179Z,73.60
2023-03-06T08:28:34.065Z,72.80
2023-03-06T08:32:37.255Z,72.60
2023-03-06T08:36:40.285Z,71.40
2023-03-06T08:40:43.112Z,70.20
2023-03-06T08:44:46.492Z,69.70
2023-03-06T08:48:49.085Z,69.00
2023-03-06T08:52:51.678Z,68.50
2023-03-06T08:56:54.492Z,68.30
2023-03-06T09:00:57.137Z,68.30
2023-03-06T09:05:01.337Z,68.10
2023-03-06T09:09:04.438Z,67.20
2023-03-06T09:13:07.379Z,66.10
2023-03-06T09:17:10.170Z,65.20
2023-03-06T09:21:12.994Z,64.10
2023-03-06T09:25:20.350Z,64.10
2023-03-06T09:29:23.008Z,64.30
2023-03-06T09:33:25.758Z,64.10
2023-03-06T09:37:28.418Z,63.40
2023-03-06T09:41:33.584Z,62.40
2023-03-06T09:45:37.194Z,61.80
2023-03-06T09:49:51.982Z,60.60
2023-03-06T09:53:59.048Z,61.00
2023-03-06T09:58:01.819Z,60.50
2023-03-06T10:02:16.063Z,59.90
2023-03-06T10:06:27.611Z,59.60
2023-03-06T10:10:40.911Z,59.50
2023-03-06T10:14:47.064Z,59.60
2023-03-06T10:18:51.341Z,59.40
2023-03-06T10:23:12.905Z,58.30
2023-03-06T10:27:23.800Z,56.90
2023-03-06T10:31:27.471Z,57.20
2023-03-06T10:35:39.909Z,57.40
2023-03-06T10:39:42.545Z,57.40
2023-03-06T10:44:05.239Z,55.60
2023-03-06T10:48:14.386Z,53.70
2023-03-06T10:52:17.044Z,52.00
2023-03-06T10:56:38.475Z,52.20
2023-03-06T11:00:41.273Z,52.90
2023-03-06T11:04:47.142Z,53.50
2023-03-06T11:08:50.237Z,51.70
2023-03-06T11:13:04.647Z,52.10
2023-03-06T11:17:26.268Z,51.30
2023-03-06T11:21:31.292Z,52.60
2023-03-06T11:25:40.473Z,53.20
2023-03-06T11:29:45.739Z,53.50
2023-03-06T11:33:51.494Z,52.90
2023-03-06T11:38:07.088Z,52.00
2023-03-06T11:42:17.000Z,51.40
2023-03-06T11:46:25.707Z,50.30
2023-03-06T11:50:34.722Z,50.20
2023-03-06T11:54:37.450Z,48.80
2023-03-06T11:59:00.308Z,49.10
2023-03-06T12:03:21.872Z,47.10
2023-03-06T12:07:27.642Z,47.00
2023-03-06T12:11:48.935Z,45.80
2023-03-06T12:16:01.385Z,45.40
2023-03-06T12:20:22.924Z,46.30
2023-03-06T12:24:25.865Z,46.70
2023-03-06T12:28:39.478Z,46.90
2023-03-06T12:33:03.374Z,47.30
2023-03-06T12:37:32.680Z,47.50
2023-03-06T12:41:42.999Z,47.60
2023-03-06T12:45:46.521Z,47.90
2023-03-06T12:49:53.323Z,47.00
2023-03-06T12:53:57.947Z,47.40
2023-03-06T12:58:20.830Z,47.50
2023-03-06T13:02:35.504Z,47.90
2023-03-06T13:06:49.721Z,48.20
2023-03-06T13:11:11.771Z,48.50
2023-03-06T13:15:20.480Z,48.50
2023-03-06T13:19:25.937Z,48.10
2023-03-06T13:23:31.822Z,47.90
2023-03-06T13:27:59.567Z,48.10
2023-03-06T13:32:02.285Z,48.10
2023-03-06T13:36:22.429Z,47.30
2023-03-06T13:40:30.276Z,46.30
2023-03-06T13:44:38.937Z,45.80
2023-03-06T13:48:45.571Z,45.30
2023-03-06T13:53:04.157Z,45.20
2023-03-06T13:57:19.600Z,45.40
2023-03-06T14:01:42.653Z,44.90
2023-03-06T14:05:46.872Z,44.30
2023-03-06T14:09:58.389Z,44.30
2023-03-06T14:14:01.012Z,44.40
2023-03-06T14:18:05.216Z,44.80
2023-03-06T14:22:13.945Z,44.90
2023-03-06T14:26:17.604Z,45.00
2023-03-06T14:30:21.998Z,45.40
2023-03-06T14:34:37.276Z,45.90
2023-03-06T14:38:44.033Z,46.80
2023-03-06T14:42:46.721Z,47.90
2023-03-06T14:46:50.299Z,48.80
2023-03-06T14:50:54.227Z,49.40
2023-03-06T14:54:56.918Z,49.70
2023-03-06T14:59:00.878Z,48.90
2023-03-06T15:03:08.640Z,49.40
2023-03-06T15:07:13.459Z,50.20
2023-03-06T15:11:16.459Z,50.40
2023-03-06T15:20:00.516Z,51.40
2023-03-06T15:24:23.038Z,53.00
2023-03-06T15:28:30.624Z,54.00
2023-03-06T15:32:34.884Z,54.20
2023-03-06T15:36:48.302Z,54.40
2023-03-06T15:40:57.211Z,55.60
2023-03-06T15:45:12.898Z,57.30
2023-03-06T15:49:17.268Z,58.20
2023-03-06T15:53:20.509Z,58.80
2023-03-06T15:57:29.003Z,59.40
2023-03-06T16:01:32.416Z,59.90
2023-03-06T16:05:35.188Z,59.70
2023-03-06T16:09:41.678Z,59.90
2023-03-06T16:13:44.804Z,59.70
2023-03-06T16:17:47.442Z,59.80
2023-03-06T16:21:50.030Z,60.30
2023-03-06T16:25:52.780Z,60.20
2023-03-06T16:29:55.528Z,59.50
2023-03-06T16:33:58.115Z,59.50
2023-03-06T16:38:00.642Z,59.60
2023-03-06T16:42:03.162Z,60.50
2023-03-06T16:46:06.672Z,61.50
2023-03-06T16:50:26.666Z,62.20
2023-03-06T16:54:29.222Z,62.80
2023-03-06T16:58:32.045Z,63.30
2023-03-06T17:02:35.052Z,64.00
2023-03-06T17:06:38.094Z,64.00
2023-03-06T17:10:41.312Z,63.70
2023-03-06T17:14:44.637Z,63.90
2023-03-06T17:18:47.497Z,63.90
2023-03-06T17:22:52.927Z,63.90
2023-03-06T17:26:55.477Z,64.00
2023-03-06T17:30:58.106Z,64.40
2023-03-06T17:35:01.017Z,64.80
2023-03-06T17:39:05.179Z,64.80
2023-03-06T17:43:07.983Z,64.80
2023-03-06T17:47:10.704Z,65.20
2023-03-06T17:51:13.344Z,65.20
2023-03-06T17:55:18.241Z,65.30
2023-03-06T17:59:21.042Z,65.30
2023-03-06T18:03:23.587Z,65.50
2023-03-06T18:07:26.706Z,65.80
2023-03-06T18:11:29.586Z,66.10
2023-03-06T18:15:32.303Z,66.40
2023-03-06T18:19:34.928Z,67.00
2023-03-06T18:23:38.269Z,67.50
2023-03-06T18:27:40.853Z,67.90
2023-03-06T18:31:44.009Z,68.20
2023-03-06T18:35:46.683Z,68.50
2023-03-06T18:39:49.622Z,68.60
2023-03-06T18:43:53.216Z,68.70
2023-03-06T18:47:55.797Z,68.60
2023-03-06T18:51:58.390Z,68.20
2023-03-06T18:56:00.965Z,68.20
2023-03-06T19:00:05.979Z,68.40
2023-03-06T19:04:08.733Z,68.30
2023-03-06T19:08:12.198Z,68.20
2023-03-06T19:12:15.713Z,68.80
2023-03-06T19:16:22.249Z,69.00
2023-03-06T19:20:25.758Z,69.00
2023-03-06T19:24:28.375Z,69.20
2023-03-06T19:28:31.016Z,69.30
2023-03-06T19:32:33.696Z,69.20
2023-03-06T19:36:38.520Z,69.40
2023-03-06T19:40:41.308Z,69.50
2023-03-06T19:44:43.891Z,69.50
2023-03-06T19:48:47.136Z,69.60
2023-03-06T19:52:49.848Z,69.60
2023-03-06T19:56:52.620Z,69.60
2023-03-06T20:01:02.269Z,69.50
2023-03-06T20:05:09.181Z,69.30
2023-03-06T20:09:12.100Z,69.30
2023-03-06T20:13:14.968Z,69.30
2023-03-06T20:17:17.770Z,69.30
2023-03-06T20:21:21.586Z,69.20
2023-03-06T20:25:24.306Z,69.20
2023-03-06T20:29:30.780Z,69.10
2023-03-06T21:17:14.946Z,70.20
2023-03-06T23:14:40.244Z,73.80
